createdAt,value
2019-01-14T00:00:09.375Z,0.00
2019-01-14T00:01:09.394Z,0.00
2019-01-14T00:02:09.385Z,0.00
2019-01-14T00:03:09.369Z,0.00
2019-01-14T00:04:09.410Z,0.00
2019-01-14T00:05:09.339Z,0.00
2019-01-14T00:06:10.239Z,0.00
2019-01-14T00:07:09.457Z,0.00
2019-01-14T00:08:09.334Z,0.00
2019-01-14T00:09:09.303Z,0.00
2019-01-14T00:10:09.406Z,0.00
2019-01-14T00:11:09.265Z,0.00
2019-01-14T00:12:09.268Z,0.00
2019-01-14T00:13:09.353Z,0.00
2019-01-14T00:14:09.234Z,0.00
2019-01-14T00:15:09.282Z,0.00
2019-01-14T00:16:09.245Z,0.00
2019-01-14T00:17:09.224Z,0.00
2019-01-14T00:18:09.260Z,0.00
2019-01-14T00:19:09.189Z,0.00
2019-01-14T00:20:09.201Z,0.00
2019-01-14T00:21:09.145Z,0.00
2019-01-14T00:22:09.133Z,0.00
2019-01-14T00:23:09.199Z,0.00
2019-01-14T00:24:09.116Z,0.00
2019-01-14T00:25:09.100Z,0.00
2019-01-14T00:26:10.808Z,0.00
2019-01-14T00:27:09.090Z,0.00
2019-01-14T00:28:09.152Z,0.00
2019-01-14T00:29:09.083Z,0.00
2019-01-14T00:30:09.051Z,0.00
2019-01-14T00:31:09.046Z,0.00
2019-01-14T00:32:09.044Z,0.00
2019-01-14T00:33:09.043Z,0.00
2019-01-14T00:34:09.236Z,0.00
2019-01-14T00:35:09.025Z,0.00
2019-01-14T00:36:09.019Z,0.00
2019-01-14T00:37:10.104Z,0.00
2019-01-14T00:38:08.956Z,0.00
2019-01-14T00:39:08.961Z,0.00
2019-01-14T00:40:09.015Z,0.00
2019-01-14T00:41:08.952Z,0.00
2019-01-14T00:42:08.930Z,0.00
2019-01-14T00:43:08.930Z,0.00
2019-01-14T00:44:08.973Z,0.00
2019-01-14T00:45:08.884Z,0.00
2019-01-14T00:46:08.928Z,0.00
2019-01-14T00:47:08.867Z,0.00
2019-01-14T00:48:08.855Z,0.00
2019-01-14T00:49:08.862Z,0.00
2019-01-14T00:50:08.978Z,0.00
2019-01-14T00:51:08.833Z,0.00
2019-01-14T00:52:08.818Z,0.00
2019-01-14T00:53:08.891Z,0.00
2019-01-14T00:54:08.802Z,0.00
2019-01-14T00:55:08.809Z,0.00
2019-01-14T00:56:08.792Z,0.00
2019-01-14T00:57:08.771Z,0.00
2019-01-14T00:58:08.758Z,0.00
2019-01-14T00:59:08.755Z,0.00
2019-01-14T01:00:08.700Z,0.00
2019-01-14T01:01:08.767Z,0.00
2019-01-14T01:02:08.730Z,0.00
2019-01-14T01:03:08.724Z,0.00
2019-01-14T01:04:08.683Z,0.00
2019-01-14T01:05:08.662Z,0.00
2019-01-14T01:06:08.871Z,0.00
2019-01-14T01:07:08.776Z,0.00
2019-01-14T01:08:08.633Z,0.00
2019-01-14T01:09:08.834Z,0.00
2019-01-14T01:10:08.616Z,0.00
2019-01-14T01:11:08.630Z,0.00
2019-01-14T01:12:08.669Z,0.00
2019-01-14T01:13:08.623Z,0.00
2019-01-14T01:14:08.565Z,0.00
2019-01-14T01:15:08.564Z,0.00
2019-01-14T01:16:08.541Z,0.00
2019-01-14T01:17:08.547Z,0.00
2019-01-14T01:18:08.597Z,0.00
2019-01-14T01:19:08.535Z,0.00
2019-01-14T01:20:08.557Z,0.00
2019-01-14T01:21:08.487Z,0.00
2019-01-14T01:22:08.475Z,0.00
2019-01-14T01:23:08.468Z,0.00
2019-01-14T01:24:08.461Z,0.00
2019-01-14T01:25:08.504Z,0.00
2019-01-14T01:26:08.489Z,0.00
2019-01-14T01:27:08.425Z,0.00
2019-01-14T01:28:08.411Z,0.00
2019-01-14T01:29:08.392Z,0.00
2019-01-14T01:30:08.413Z,0.00
2019-01-14T01:31:08.435Z,0.00
2019-01-14T01:32:08.355Z,0.00
2019-01-14T01:33:08.427Z,0.00
2019-01-14T01:34:08.340Z,0.00
2019-01-14T01:35:08.319Z,0.00
2019-01-14T01:36:08.428Z,0.00
2019-01-14T01:37:08.300Z,0.00
2019-01-14T01:38:08.296Z,0.00
2019-01-14T01:39:08.366Z,0.00
2019-01-14T01:40:08.268Z,0.00
2019-01-14T01:41:08.335Z,0.00
2019-01-14T01:42:08.249Z,0.00
2019-01-14T01:43:08.254Z,0.00
2019-01-14T01:44:08.315Z,0.00
2019-01-14T01:45:08.212Z,0.00
2019-01-14T01:46:08.354Z,0.00
2019-01-14T01:47:08.187Z,0.00
2019-01-14T01:48:08.193Z,0.00
2019-01-14T01:49:08.338Z,0.00
2019-01-14T01:50:08.210Z,0.00
2019-01-14T01:51:08.148Z,0.00
2019-01-14T01:52:08.163Z,0.00
2019-01-14T01:53:08.131Z,0.00
2019-01-14T01:54:08.100Z,0.00
2019-01-14T01:55:08.161Z,0.00
2019-01-14T01:56:08.086Z,0.00
2019-01-14T01:57:08.072Z,0.00
2019-01-14T01:58:08.057Z,0.00
2019-01-14T01:59:08.051Z,0.00
2019-01-14T02:00:08.060Z,0.00
2019-01-14T02:01:08.071Z,0.00
2019-01-14T02:02:08.010Z,0.00
2019-01-14T02:03:08.014Z,0.00
2019-01-14T02:04:08.040Z,0.00
2019-01-14T02:05:07.992Z,0.00
2019-01-14T02:06:08.039Z,0.00
2019-01-14T02:07:07.965Z,0.00
2019-01-14T02:08:07.952Z,0.00
2019-01-14T02:09:07.983Z,0.00
2019-01-14T02:10:07.937Z,0.00
2019-01-14T02:11:07.964Z,0.00
2019-01-14T02:12:07.925Z,0.00
2019-01-14T02:13:07.888Z,0.00
2019-01-14T02:14:07.885Z,0.00
2019-01-14T02:15:07.865Z,0.00
2019-01-14T02:16:07.972Z,0.00
2019-01-14T02:17:07.904Z,0.00
2019-01-14T02:18:07.839Z,0.00
2019-01-14T02:19:07.887Z,0.00
2019-01-14T02:20:07.817Z,0.00
2019-01-14T02:21:07.804Z,0.00
2019-01-14T02:22:07.794Z,0.00
2019-01-14T02:23:07.819Z,0.00
2019-01-14T02:24:07.803Z,0.00
2019-01-14T02:25:07.857Z,0.00
2019-01-14T02:26:07.751Z,0.00
2019-01-14T02:27:07.744Z,0.00
2019-01-14T02:28:07.744Z,0.00
2019-01-14T02:29:07.712Z,0.00
2019-01-14T02:30:07.757Z,0.00
2019-01-14T02:31:07.770Z,0.00
2019-01-14T02:32:07.687Z,0.00
2019-01-14T02:33:07.670Z,0.00
2019-01-14T02:34:07.740Z,0.00
2019-01-14T02:35:07.849Z,0.00
2019-01-14T02:36:07.716Z,0.00
2019-01-14T02:37:07.644Z,0.00
2019-01-14T02:38:07.652Z,0.00
2019-01-14T02:39:07.581Z,0.00
2019-01-14T02:40:07.623Z,0.00
2019-01-14T02:41:07.612Z,0.00
2019-01-14T02:42:07.663Z,0.00
2019-01-14T02:43:07.606Z,0.00
2019-01-14T02:44:07.582Z,0.00
2019-01-14T02:45:07.529Z,0.00
2019-01-14T02:46:07.526Z,0.00
2019-01-14T02:47:07.596Z,0.00
2019-01-14T02:48:07.629Z,0.00
2019-01-14T02:49:07.579Z,0.00
2019-01-14T02:50:07.486Z,0.00
2019-01-14T02:51:07.480Z,0.00
2019-01-14T02:52:07.462Z,0.00
2019-01-14T02:53:07.468Z,0.00
2019-01-14T02:54:07.530Z,0.00
2019-01-14T02:55:07.429Z,0.00
2019-01-14T02:56:07.431Z,0.00
2019-01-14T02:57:07.405Z,0.00
2019-01-14T02:58:07.386Z,0.00
2019-01-14T02:59:07.647Z,0.00
2019-01-14T03:00:07.347Z,0.00
2019-01-14T03:01:07.416Z,0.00
2019-01-14T03:02:08.126Z,0.00
2019-01-14T03:03:07.330Z,0.00
2019-01-14T03:04:07.318Z,0.00
2019-01-14T03:05:07.293Z,0.00
2019-01-14T03:06:07.364Z,0.00
2019-01-14T03:07:07.299Z,0.00
2019-01-14T03:08:07.270Z,0.00
2019-01-14T03:09:07.324Z,0.00
2019-01-14T03:10:07.256Z,0.00
2019-01-14T03:11:07.298Z,0.00
2019-01-14T03:12:07.299Z,0.00
2019-01-14T03:13:07.239Z,0.00
2019-01-14T03:14:07.263Z,0.00
2019-01-14T03:15:07.198Z,0.00
2019-01-14T03:16:07.225Z,0.00
2019-01-14T03:17:08.133Z,0.00
2019-01-14T03:18:08.131Z,0.00
2019-01-14T03:19:07.163Z,0.00
2019-01-14T03:20:07.147Z,0.00
2019-01-14T03:21:08.130Z,0.00
2019-01-14T03:22:07.121Z,0.00
2019-01-14T03:23:07.156Z,0.00
2019-01-14T03:24:07.097Z,0.00
2019-01-14T03:25:07.085Z,0.00
2019-01-14T03:26:07.136Z,0.00
2019-01-14T03:27:07.074Z,0.00
2019-01-14T03:28:07.098Z,0.00
2019-01-14T03:29:07.159Z,0.00
2019-01-14T03:30:07.022Z,0.00
2019-01-14T03:31:07.012Z,0.00
2019-01-14T03:32:07.014Z,0.00
2019-01-14T03:33:07.034Z,0.00
2019-01-14T03:34:07.003Z,0.00
2019-01-14T03:35:06.985Z,0.00
2019-01-14T03:36:06.971Z,0.00
2019-01-14T03:37:06.959Z,0.00
2019-01-14T03:38:06.940Z,0.00
2019-01-14T03:39:07.005Z,0.00
2019-01-14T03:40:06.917Z,0.00
2019-01-14T03:41:06.936Z,0.00
2019-01-14T03:42:06.899Z,0.00
2019-01-14T03:43:06.887Z,0.00
2019-01-14T03:44:06.922Z,0.00
2019-01-14T03:45:06.861Z,0.00
2019-01-14T03:46:06.909Z,0.00
2019-01-14T03:47:06.853Z,0.00
2019-01-14T03:48:06.884Z,0.00
2019-01-14T03:49:06.818Z,0.00
2019-01-14T03:50:06.802Z,0.00
2019-01-14T03:51:06.890Z,0.00
2019-01-14T03:52:06.782Z,0.00
2019-01-14T03:53:06.769Z,0.00
2019-01-14T03:54:06.794Z,0.00
2019-01-14T03:55:06.851Z,0.00
2019-01-14T03:56:06.739Z,0.00
2019-01-14T03:57:07.009Z,0.00
2019-01-14T03:58:06.739Z,0.00
2019-01-14T03:59:06.689Z,0.00
2019-01-14T04:00:06.685Z,0.00
2019-01-14T04:01:06.670Z,0.00
2019-01-14T04:02:06.687Z,0.00
2019-01-14T04:03:06.703Z,0.00
2019-01-14T04:04:06.682Z,0.00
2019-01-14T04:05:06.668Z,0.00
2019-01-14T04:06:06.627Z,0.00
2019-01-14T04:07:13.669Z,0.00
2019-01-14T04:08:07.666Z,0.00
2019-01-14T04:09:06.630Z,0.00
2019-01-14T04:10:06.559Z,0.00
2019-01-14T04:11:06.589Z,0.00
2019-01-14T04:12:06.631Z,0.00
2019-01-14T04:13:06.566Z,0.00
2019-01-14T04:14:06.655Z,0.00
2019-01-14T04:15:06.547Z,0.00
2019-01-14T04:16:06.527Z,0.00
2019-01-14T04:17:06.508Z,0.00
2019-01-14T04:18:06.528Z,0.00
2019-01-14T04:19:06.491Z,0.00
2019-01-14T04:20:06.588Z,0.00
2019-01-14T04:21:06.457Z,0.00
2019-01-14T04:22:06.506Z,0.00
2019-01-14T04:23:06.435Z,0.00
2019-01-14T04:24:06.438Z,0.00
2019-01-14T04:25:06.400Z,0.00
2019-01-14T04:26:06.403Z,0.00
2019-01-14T04:27:06.481Z,0.00
2019-01-14T04:28:06.526Z,0.00
2019-01-14T04:29:06.419Z,0.00
2019-01-14T04:30:06.363Z,0.00
2019-01-14T04:31:06.486Z,0.00
2019-01-14T04:32:06.378Z,0.00
2019-01-14T04:33:06.297Z,0.00
2019-01-14T04:34:06.376Z,0.00
2019-01-14T04:35:06.280Z,0.00
2019-01-14T04:36:06.381Z,0.00
2019-01-14T04:37:06.365Z,0.00
2019-01-14T04:38:06.283Z,0.00
2019-01-14T04:39:06.296Z,0.00
2019-01-14T04:40:06.240Z,0.00
2019-01-14T04:41:06.263Z,0.00
2019-01-14T04:42:06.203Z,0.00
2019-01-14T04:43:06.186Z,0.00
2019-01-14T04:44:06.191Z,0.00
2019-01-14T04:45:06.192Z,0.00
2019-01-14T04:46:06.148Z,0.00
2019-01-14T04:47:06.207Z,0.00
2019-01-14T04:48:06.156Z,0.00
2019-01-14T04:49:06.117Z,0.00
2019-01-14T04:50:06.113Z,0.00
2019-01-14T04:51:06.120Z,0.00
2019-01-14T04:52:06.088Z,0.00
2019-01-14T04:53:06.071Z,0.00
2019-01-14T04:54:06.061Z,0.00
2019-01-14T04:55:06.056Z,0.00
2019-01-14T04:56:06.074Z,0.00
2019-01-14T04:57:06.035Z,0.00
2019-01-14T04:58:06.042Z,0.00
2019-01-14T04:59:06.015Z,0.00
2019-01-14T05:00:05.990Z,0.00
2019-01-14T05:01:06.021Z,0.00
2019-01-14T05:02:05.984Z,0.00
2019-01-14T05:03:05.963Z,0.00
2019-01-14T05:04:05.950Z,0.00
2019-01-14T05:05:05.960Z,0.00
2019-01-14T05:06:05.955Z,0.00
2019-01-14T05:07:05.917Z,0.00
2019-01-14T05:08:05.896Z,0.00
2019-01-14T05:09:05.896Z,0.00
2019-01-14T05:10:05.897Z,0.00
2019-01-14T05:11:05.992Z,0.00
2019-01-14T05:12:05.914Z,0.00
2019-01-14T05:13:05.846Z,0.00
2019-01-14T05:14:05.833Z,0.00
2019-01-14T05:15:05.828Z,0.00
2019-01-14T05:16:05.811Z,0.00
2019-01-14T05:17:05.817Z,0.00
2019-01-14T05:18:05.828Z,0.00
2019-01-14T05:19:05.777Z,0.00
2019-01-14T05:20:05.778Z,0.00
2019-01-14T05:21:05.761Z,0.00
2019-01-14T05:22:05.828Z,0.00
2019-01-14T05:23:05.742Z,0.00
2019-01-14T05:24:05.761Z,0.00
2019-01-14T05:25:05.712Z,0.00
2019-01-14T05:26:05.723Z,0.00
2019-01-14T05:27:05.790Z,0.00
2019-01-14T05:28:05.678Z,0.00
2019-01-14T05:29:05.721Z,0.00
2019-01-14T05:30:05.706Z,0.00
2019-01-14T05:31:05.643Z,0.00
2019-01-14T05:32:05.664Z,0.00
2019-01-14T05:33:05.623Z,0.00
2019-01-14T05:34:05.625Z,0.00
2019-01-14T05:35:05.606Z,0.00
2019-01-14T05:36:05.587Z,0.00
2019-01-14T05:37:05.581Z,0.00
2019-01-14T05:38:05.591Z,0.00
2019-01-14T05:39:05.580Z,0.00
2019-01-14T05:40:05.537Z,0.00
2019-01-14T05:41:05.536Z,0.00
2019-01-14T05:42:05.523Z,0.00
2019-01-14T05:43:05.534Z,0.00
2019-01-14T05:44:05.492Z,0.00
2019-01-14T05:45:05.486Z,0.00
2019-01-14T05:46:05.507Z,0.00
2019-01-14T05:47:05.461Z,0.00
2019-01-14T05:48:05.470Z,0.00
2019-01-14T05:49:05.450Z,0.00
2019-01-14T05:50:05.429Z,0.00
2019-01-14T05:51:05.444Z,0.00
2019-01-14T05:52:05.418Z,0.00
2019-01-14T05:53:05.421Z,0.00
2019-01-14T05:54:05.488Z,0.00
2019-01-14T05:55:05.368Z,0.00
2019-01-14T05:56:05.359Z,0.00
2019-01-14T05:57:05.354Z,0.00
2019-01-14T05:58:05.359Z,0.00
2019-01-14T05:59:05.345Z,0.00
2019-01-14T06:00:05.315Z,0.00
2019-01-14T06:01:05.299Z,0.00
2019-01-14T06:02:05.328Z,0.00
2019-01-14T06:03:05.305Z,0.00
2019-01-14T06:04:05.278Z,0.00
2019-01-14T06:05:05.259Z,0.00
2019-01-14T06:06:05.250Z,0.00
2019-01-14T06:07:05.240Z,0.00
2019-01-14T06:08:05.240Z,0.00
2019-01-14T06:09:05.260Z,0.00
2019-01-14T06:10:06.160Z,0.00
2019-01-14T06:11:05.192Z,0.00
2019-01-14T06:12:05.179Z,0.00
2019-01-14T06:13:05.258Z,0.00
2019-01-14T06:14:05.158Z,0.00
2019-01-14T06:15:05.176Z,0.00
2019-01-14T06:16:05.139Z,0.00
2019-01-14T06:17:05.148Z,0.00
2019-01-14T06:18:05.117Z,0.00
2019-01-14T06:19:05.108Z,0.00
2019-01-14T06:20:05.117Z,0.00
2019-01-14T06:21:05.080Z,0.00
2019-01-14T06:22:05.083Z,0.00
2019-01-14T06:23:05.075Z,0.00
2019-01-14T06:24:05.045Z,0.00
2019-01-14T06:25:05.075Z,0.00
2019-01-14T06:26:05.032Z,0.00
2019-01-14T06:27:05.007Z,0.00
2019-01-14T06:28:05.029Z,0.00
2019-01-14T06:29:04.997Z,0.00
2019-01-14T06:30:04.999Z,0.00
2019-01-14T06:31:04.969Z,0.00
2019-01-14T06:32:04.961Z,0.00
2019-01-14T06:33:04.967Z,0.00
2019-01-14T06:34:04.983Z,0.00
2019-01-14T06:35:04.935Z,0.00
2019-01-14T06:36:04.912Z,0.00
2019-01-14T06:37:04.918Z,0.00
2019-01-14T06:38:04.905Z,0.00
2019-01-14T06:39:04.876Z,0.00
2019-01-14T06:40:04.866Z,0.00
2019-01-14T06:41:04.856Z,0.00
2019-01-14T06:42:07.549Z,0.00
2019-01-14T06:43:04.834Z,0.00
2019-01-14T06:44:04.845Z,0.00
2019-01-14T06:45:04.813Z,0.00
2019-01-14T06:46:04.795Z,0.00
2019-01-14T06:47:04.836Z,0.00
2019-01-14T06:48:04.789Z,0.00
2019-01-14T06:49:04.790Z,0.00
2019-01-14T06:50:04.923Z,0.00
2019-01-14T06:51:04.750Z,0.00
2019-01-14T06:52:04.728Z,0.00
2019-01-14T06:53:04.728Z,0.00
2019-01-14T06:54:04.735Z,0.00
2019-01-14T06:55:04.708Z,0.00
2019-01-14T06:56:04.712Z,0.00
2019-01-14T06:57:04.681Z,0.00
2019-01-14T06:58:04.688Z,0.00
2019-01-14T06:59:04.668Z,0.00
2019-01-14T07:00:04.648Z,0.00
2019-01-14T07:01:04.630Z,0.00
2019-01-14T07:02:04.637Z,0.00
2019-01-14T07:03:04.625Z,0.00
2019-01-14T07:04:04.596Z,0.00
2019-01-14T07:05:04.606Z,0.00
2019-01-14T07:06:04.574Z,0.00
2019-01-14T07:07:04.564Z,0.00
2019-01-14T07:08:04.576Z,0.00
2019-01-14T07:09:04.606Z,0.00
2019-01-14T07:10:04.534Z,0.00
2019-01-14T07:11:04.583Z,0.00
2019-01-14T07:12:04.512Z,0.00
2019-01-14T07:13:04.523Z,0.00
2019-01-14T07:14:05.171Z,0.00
2019-01-14T07:15:04.473Z,0.00
2019-01-14T07:16:04.464Z,0.00
2019-01-14T07:17:04.521Z,0.00
2019-01-14T07:18:04.481Z,0.00
2019-01-14T07:19:04.424Z,0.00
2019-01-14T07:20:04.542Z,0.00
2019-01-14T07:21:04.404Z,0.00
2019-01-14T07:22:04.418Z,0.00
2019-01-14T07:23:04.388Z,0.00
2019-01-14T07:24:04.391Z,0.00
2019-01-14T07:25:04.369Z,0.00
2019-01-14T07:26:04.376Z,0.00
2019-01-14T07:27:04.351Z,0.00
2019-01-14T07:28:04.381Z,0.00
2019-01-14T07:29:04.319Z,0.00
2019-01-14T07:30:04.318Z,0.00
2019-01-14T07:31:04.334Z,0.00
2019-01-14T07:32:04.314Z,0.00
2019-01-14T07:33:04.507Z,0.00
2019-01-14T07:34:04.256Z,0.00
2019-01-14T07:35:04.254Z,0.00
2019-01-14T07:36:04.368Z,0.00
2019-01-14T07:37:04.229Z,0.00
2019-01-14T07:38:06.916Z,0.00
2019-01-14T07:39:04.238Z,0.00
2019-01-14T07:40:05.347Z,0.00
2019-01-14T07:41:04.197Z,0.00
2019-01-14T07:42:04.189Z,0.00
2019-01-14T07:43:04.172Z,0.00
2019-01-14T07:44:04.197Z,0.00
2019-01-14T07:45:04.160Z,0.00
2019-01-14T07:46:04.135Z,0.00
2019-01-14T07:47:04.129Z,0.00
2019-01-14T07:48:04.113Z,0.00
2019-01-14T07:49:04.113Z,0.00
2019-01-14T07:50:04.125Z,0.00
2019-01-14T07:51:04.085Z,0.00
2019-01-14T07:52:04.090Z,0.00
2019-01-14T07:53:04.076Z,0.00
2019-01-14T07:54:04.058Z,0.00
2019-01-14T07:55:04.041Z,0.00
2019-01-14T07:56:04.050Z,0.00
2019-01-14T07:57:04.044Z,0.00
2019-01-14T07:58:04.002Z,0.00
2019-01-14T07:59:03.989Z,5.62
2019-01-14T08:00:04.083Z,5.62
2019-01-14T08:01:03.965Z,5.62
2019-01-14T08:02:03.986Z,5.62
2019-01-14T08:03:03.977Z,5.62
2019-01-14T08:04:03.945Z,5.62
2019-01-14T08:05:03.951Z,0.00
2019-01-14T08:06:03.961Z,0.00
2019-01-14T08:07:03.898Z,5.62
2019-01-14T08:08:03.933Z,5.62
2019-01-14T08:09:03.921Z,5.62
2019-01-14T08:10:03.873Z,5.62
2019-01-14T08:11:03.862Z,11.25
2019-01-14T08:12:03.840Z,11.25
2019-01-14T08:13:03.852Z,11.25
2019-01-14T08:14:03.854Z,11.25
2019-01-14T08:15:03.826Z,11.25
2019-01-14T08:16:03.998Z,11.25
2019-01-14T08:17:03.783Z,11.25
2019-01-14T08:18:03.789Z,11.25
2019-01-14T08:19:03.853Z,11.25
2019-01-14T08:20:03.781Z,11.25
2019-01-14T08:21:03.735Z,11.25
2019-01-14T08:22:03.729Z,11.25
2019-01-14T08:23:03.717Z,11.25
2019-01-14T08:24:03.738Z,11.25
2019-01-14T08:25:03.712Z,11.25
2019-01-14T08:26:03.709Z,11.25
2019-01-14T08:27:03.678Z,16.88
2019-01-14T08:28:03.669Z,16.88
2019-01-14T08:29:03.722Z,16.88
2019-01-14T08:30:03.636Z,22.50
2019-01-14T08:31:03.708Z,22.50
2019-01-14T08:32:03.679Z,22.50
2019-01-14T08:33:03.611Z,22.50
2019-01-14T08:34:03.647Z,22.50
2019-01-14T08:35:03.597Z,28.12
2019-01-14T08:36:03.610Z,28.12
2019-01-14T08:37:03.573Z,22.50
2019-01-14T08:38:03.560Z,22.50
2019-01-14T08:39:03.558Z,22.50
2019-01-14T08:40:03.597Z,22.50
2019-01-14T08:41:03.628Z,28.12
2019-01-14T08:42:03.516Z,22.50
2019-01-14T08:43:03.507Z,22.50
2019-01-14T08:44:03.481Z,22.50
2019-01-14T08:45:03.477Z,22.50
2019-01-14T08:46:03.521Z,22.50
2019-01-14T08:47:03.470Z,22.50
2019-01-14T08:48:03.448Z,28.12
2019-01-14T08:49:03.442Z,28.12
2019-01-14T08:50:03.429Z,28.12
2019-01-14T08:51:03.493Z,28.12
2019-01-14T08:52:03.395Z,33.75
2019-01-14T08:53:03.406Z,28.12
2019-01-14T08:54:03.394Z,33.75
2019-01-14T08:55:03.375Z,39.38
2019-01-14T08:56:03.431Z,45.00
2019-01-14T08:57:03.433Z,45.00
2019-01-14T08:58:03.334Z,33.75
2019-01-14T08:59:03.379Z,28.12
2019-01-14T09:00:03.327Z,28.12
2019-01-14T09:01:03.309Z,28.12
2019-01-14T09:02:03.293Z,33.75
2019-01-14T09:03:03.330Z,39.38
2019-01-14T09:04:03.278Z,45.00
2019-01-14T09:05:03.265Z,50.62
2019-01-14T09:06:03.272Z,50.62
2019-01-14T09:07:03.253Z,45.00
2019-01-14T09:08:03.280Z,45.00
2019-01-14T09:09:03.211Z,33.75
2019-01-14T09:10:03.217Z,33.75
2019-01-14T09:11:03.241Z,33.75
2019-01-14T09:12:03.359Z,33.75
2019-01-14T09:13:03.221Z,28.12
2019-01-14T09:14:03.170Z,28.12
2019-01-14T09:15:03.306Z,28.12
2019-01-14T09:16:03.152Z,28.12
2019-01-14T09:17:03.130Z,28.12
2019-01-14T09:18:03.167Z,28.12
2019-01-14T09:19:03.151Z,28.12
2019-01-14T09:20:03.105Z,33.75
2019-01-14T09:21:03.098Z,39.38
2019-01-14T09:22:03.079Z,39.38
2019-01-14T09:23:03.101Z,45.00
2019-01-14T09:24:03.063Z,50.62
2019-01-14T09:25:03.044Z,45.00
2019-01-14T09:26:03.072Z,45.00
2019-01-14T09:27:03.075Z,45.00
2019-01-14T09:28:03.013Z,50.62
2019-01-14T09:29:03.050Z,56.25
2019-01-14T09:30:02.986Z,61.88
2019-01-14T09:31:03.014Z,61.88
2019-01-14T09:32:02.975Z,56.25
2019-01-14T09:33:02.964Z,56.25
2019-01-14T09:34:02.974Z,56.25
2019-01-14T09:35:02.932Z,50.62
2019-01-14T09:36:02.915Z,45.00
2019-01-14T09:37:02.907Z,45.00
2019-01-14T09:38:02.913Z,45.00
2019-01-14T09:39:02.996Z,45.00
2019-01-14T09:40:02.875Z,39.38
2019-01-14T09:41:03.974Z,39.38
2019-01-14T09:42:02.857Z,33.75
2019-01-14T09:43:02.834Z,39.38
2019-01-14T09:44:02.893Z,56.25
2019-01-14T09:45:02.822Z,61.88
2019-01-14T09:46:02.819Z,56.25
2019-01-14T09:47:02.798Z,50.62
2019-01-14T09:48:02.792Z,45.00
2019-01-14T09:49:02.795Z,39.38
2019-01-14T09:50:02.804Z,39.38
2019-01-14T09:51:02.742Z,39.38
2019-01-14T09:52:02.743Z,39.38
2019-01-14T09:53:02.757Z,39.38
2019-01-14T09:54:02.716Z,39.38
2019-01-14T09:55:05.731Z,33.75
2019-01-14T09:56:02.692Z,33.75
2019-01-14T09:57:02.700Z,33.75
2019-01-14T09:58:02.701Z,33.75
2019-01-14T09:59:02.686Z,33.75
2019-01-14T10:00:02.649Z,33.75
2019-01-14T10:01:02.643Z,39.38
2019-01-14T10:02:02.642Z,39.38
2019-01-14T10:03:02.641Z,45.00
2019-01-14T10:04:02.611Z,45.00
2019-01-14T10:05:02.614Z,45.00
2019-01-14T10:06:02.585Z,50.62
2019-01-14T10:07:02.620Z,50.62
2019-01-14T10:08:02.603Z,56.25
2019-01-14T10:09:03.921Z,50.62
2019-01-14T10:10:02.550Z,50.62
2019-01-14T10:11:02.537Z,45.00
2019-01-14T10:12:02.526Z,50.62
2019-01-14T10:13:02.521Z,56.25
2019-01-14T10:14:02.564Z,61.88
2019-01-14T10:15:02.482Z,67.50
2019-01-14T10:16:02.467Z,95.62
2019-01-14T10:17:02.462Z,112.50
2019-01-14T10:18:02.451Z,106.88
2019-01-14T10:19:02.497Z,106.88
2019-01-14T10:20:02.475Z,118.12
2019-01-14T10:21:02.440Z,106.88
2019-01-14T10:22:02.398Z,56.25
2019-01-14T10:23:02.398Z,33.75
2019-01-14T10:24:02.389Z,33.75
2019-01-14T10:25:02.364Z,33.75
2019-01-14T10:26:02.384Z,33.75
2019-01-14T10:27:02.361Z,33.75
2019-01-14T10:28:02.329Z,39.38
2019-01-14T10:29:02.322Z,39.38
2019-01-14T10:30:02.316Z,45.00
2019-01-14T10:31:02.343Z,50.62
2019-01-14T10:32:02.279Z,61.88
2019-01-14T10:33:02.269Z,67.50
2019-01-14T10:34:02.259Z,84.38
2019-01-14T10:35:02.373Z,90.00
2019-01-14T10:36:02.322Z,84.38
2019-01-14T10:37:02.261Z,95.62
2019-01-14T10:38:02.292Z,90.00
2019-01-14T10:39:02.212Z,84.38
2019-01-14T10:40:02.197Z,78.75
2019-01-14T10:41:02.191Z,78.75
2019-01-14T10:42:05.069Z,73.12
2019-01-14T10:43:02.204Z,73.12
2019-01-14T10:44:02.194Z,56.25
2019-01-14T10:45:02.179Z,50.62
2019-01-14T10:46:02.140Z,50.62
2019-01-14T10:47:02.167Z,56.25
2019-01-14T10:48:02.146Z,56.25
2019-01-14T10:49:06.607Z,61.88
2019-01-14T10:50:02.122Z,56.25
2019-01-14T10:51:02.172Z,50.62
2019-01-14T10:52:02.071Z,50.62
2019-01-14T10:53:02.066Z,67.50
2019-01-14T10:54:02.076Z,78.75
2019-01-14T10:55:02.031Z,101.25
2019-01-14T10:56:02.047Z,106.88
2019-01-14T10:57:02.021Z,106.88
2019-01-14T10:58:01.994Z,106.88
2019-01-14T10:59:01.997Z,101.25
2019-01-14T11:00:01.971Z,84.38
2019-01-14T11:01:01.973Z,73.12
2019-01-14T11:02:01.985Z,67.50
2019-01-14T11:03:01.942Z,67.50
2019-01-14T11:04:01.922Z,61.88
2019-01-14T11:05:01.941Z,61.88
2019-01-14T11:06:01.946Z,67.50
2019-01-14T11:07:01.926Z,73.12
2019-01-14T11:08:01.912Z,78.75
2019-01-14T11:09:05.983Z,84.38
2019-01-14T11:10:01.871Z,50.62
2019-01-14T11:11:01.859Z,61.88
2019-01-14T11:12:01.842Z,56.25
2019-01-14T11:13:01.916Z,67.50
2019-01-14T11:14:01.828Z,73.12
2019-01-14T11:15:03.148Z,84.38
2019-01-14T11:16:01.821Z,67.50
2019-01-14T11:17:01.825Z,61.88
2019-01-14T11:18:01.828Z,45.00
2019-01-14T11:19:01.762Z,50.62
2019-01-14T11:20:01.767Z,50.62
2019-01-14T11:21:01.804Z,67.50
2019-01-14T11:22:01.738Z,67.50
2019-01-14T11:23:01.721Z,67.50
2019-01-14T11:24:01.764Z,67.50
2019-01-14T11:25:02.515Z,56.25
2019-01-14T11:26:01.727Z,45.00
2019-01-14T11:27:01.687Z,45.00
2019-01-14T11:28:01.676Z,50.62
2019-01-14T11:29:01.651Z,50.62
2019-01-14T11:30:01.704Z,56.25
2019-01-14T11:31:01.627Z,50.62
2019-01-14T11:32:01.711Z,56.25
2019-01-14T11:33:01.615Z,61.88
2019-01-14T11:34:01.679Z,56.25
2019-01-14T11:35:01.608Z,56.25
2019-01-14T11:36:01.629Z,56.25
2019-01-14T11:37:01.635Z,56.25
2019-01-14T11:38:01.581Z,61.88
2019-01-14T11:39:05.198Z,67.50
2019-01-14T11:40:01.532Z,67.50
2019-01-14T11:41:01.531Z,67.50
2019-01-14T11:42:01.542Z,78.75
2019-01-14T11:43:01.499Z,90.00
2019-01-14T11:44:01.565Z,101.25
2019-01-14T11:45:01.515Z,67.50
2019-01-14T11:46:01.469Z,61.88
2019-01-14T11:47:01.688Z,61.88
2019-01-14T11:48:01.434Z,78.75
2019-01-14T11:49:01.427Z,112.50
2019-01-14T11:50:01.493Z,84.38
2019-01-14T11:51:01.530Z,90.00
2019-01-14T11:52:01.405Z,95.62
2019-01-14T11:53:01.439Z,123.75
2019-01-14T11:54:01.385Z,90.00
2019-01-14T11:55:01.400Z,118.12
2019-01-14T11:56:01.353Z,135.00
2019-01-14T11:57:01.363Z,95.62
2019-01-14T11:58:01.469Z,101.25
2019-01-14T11:59:01.353Z,73.12
2019-01-14T12:00:01.315Z,112.50
2019-01-14T12:01:01.337Z,118.12
2019-01-14T12:02:01.283Z,84.38
2019-01-14T12:03:01.310Z,56.25
2019-01-14T12:04:01.284Z,67.50
2019-01-14T12:05:01.298Z,106.88
2019-01-14T12:06:01.233Z,123.75
2019-01-14T12:07:01.236Z,101.25
2019-01-14T12:08:01.233Z,123.75
2019-01-14T12:09:01.216Z,84.38
2019-01-14T12:10:01.194Z,78.75
2019-01-14T12:11:01.229Z,78.75
2019-01-14T12:12:01.185Z,84.38
2019-01-14T12:13:01.151Z,84.38
2019-01-14T12:14:01.175Z,95.62
2019-01-14T12:15:01.144Z,78.75
2019-01-14T12:16:01.153Z,73.12
2019-01-14T12:17:01.150Z,95.62
2019-01-14T12:18:01.100Z,84.38
2019-01-14T12:19:01.100Z,106.88
2019-01-14T12:20:01.122Z,112.50
2019-01-14T12:21:01.733Z,140.62
2019-01-14T12:22:01.054Z,163.12
2019-01-14T12:23:01.051Z,140.62
2019-01-14T12:24:01.036Z,118.12
2019-01-14T12:25:01.121Z,106.88
2019-01-14T12:26:01.114Z,95.62
2019-01-14T12:27:01.032Z,123.75
2019-01-14T12:28:01.026Z,135.00
2019-01-14T12:29:00.994Z,146.25
2019-01-14T12:30:01.185Z,157.50
2019-01-14T12:31:00.959Z,140.62
2019-01-14T12:32:00.993Z,101.25
2019-01-14T12:33:01.034Z,78.75
2019-01-14T12:34:01.229Z,61.88
2019-01-14T12:35:01.048Z,50.62
2019-01-14T12:36:00.904Z,33.75
2019-01-14T12:37:00.892Z,22.50
2019-01-14T12:38:00.886Z,11.25
2019-01-14T12:39:00.918Z,11.25
2019-01-14T12:40:00.859Z,11.25
2019-01-14T12:41:00.846Z,11.25
2019-01-14T12:42:00.904Z,16.88
2019-01-14T12:43:00.826Z,22.50
2019-01-14T12:44:00.822Z,22.50
2019-01-14T12:45:00.873Z,22.50
2019-01-14T12:46:00.793Z,22.50
2019-01-14T12:47:00.778Z,28.12
2019-01-14T12:48:00.772Z,28.12
2019-01-14T12:49:00.777Z,22.50
2019-01-14T12:50:00.737Z,22.50
2019-01-14T12:51:00.982Z,16.88
2019-01-14T12:52:00.729Z,16.88
2019-01-14T12:53:00.732Z,22.50
2019-01-14T12:54:00.807Z,28.12
2019-01-14T12:55:00.725Z,39.38
2019-01-14T12:56:00.719Z,50.62
2019-01-14T12:57:00.710Z,56.25
2019-01-14T12:58:00.684Z,56.25
2019-01-14T12:59:00.648Z,67.50
2019-01-14T13:00:00.643Z,78.75
2019-01-14T13:01:00.666Z,84.38
2019-01-14T13:02:00.635Z,84.38
2019-01-14T13:03:00.653Z,73.12
2019-01-14T13:04:00.608Z,67.50
2019-01-14T13:05:00.596Z,73.12
2019-01-14T13:06:00.579Z,112.50
2019-01-14T13:07:00.738Z,129.38